Terminal Aerodrome Forecast
Issued by NWS

Home | Current Version | Previous Version | Text Only | Print | Product List | Glossary On
Versions: 1 2 3 4 5 6 7 8 9 10 11 12 13 14 15 16 17 18 19 20 21 22 23 24 25
000
FTUS44 KEWX 111100
TAFSSF
TAF
KSSF 111138Z 1112/1212 12007KT P6SM OVC020
     FM111500 15009KT P6SM BKN030 BKN070
     FM111800 14012G22KT P6SM SCT050 BKN150
     FM120200 14010KT P6SM SCT150
     FM120900 13006KT 5SM BR BKN010=

USA.gov is the U.S. government's official web portal to all federal, state and local government web resources and services.